createdAt,value
2018-05-14T00:00:43.639Z,13.24
2018-05-14T00:01:43.583Z,13.20
2018-05-14T00:02:43.528Z,13.18
2018-05-14T00:03:43.495Z,13.30
2018-05-14T00:04:43.414Z,13.21
2018-05-14T00:05:43.357Z,13.32
2018-05-14T00:06:43.300Z,13.37
2018-05-14T00:07:43.242Z,13.37
2018-05-14T00:08:43.190Z,13.37
2018-05-14T00:09:43.130Z,13.36
2018-05-14T00:10:43.075Z,13.37
2018-05-14T00:11:43.017Z,13.33
2018-05-14T00:12:42.974Z,13.29
2018-05-14T00:13:42.907Z,13.30
2018-05-14T00:14:42.848Z,13.30
2018-05-14T00:15:42.792Z,13.32
2018-05-14T00:16:42.737Z,13.30
2018-05-14T00:17:42.679Z,13.37
2018-05-14T00:18:42.625Z,13.27
2018-05-14T00:19:42.567Z,13.20
2018-05-14T00:20:42.513Z,13.22
2018-05-14T00:21:42.455Z,13.21
2018-05-14T00:22:42.399Z,13.15
2018-05-14T00:23:42.343Z,13.18
2018-05-14T00:24:42.287Z,13.22
2018-05-14T00:25:42.228Z,13.21
2018-05-14T00:26:42.173Z,13.21
2018-05-14T00:27:42.118Z,13.25
2018-05-14T00:28:42.061Z,13.21
2018-05-14T00:29:42.005Z,13.18
2018-05-14T00:30:41.949Z,13.18
2018-05-14T00:31:41.893Z,13.33
2018-05-14T00:32:41.836Z,13.36
2018-05-14T00:33:41.780Z,13.29
2018-05-14T00:34:41.724Z,13.21
2018-05-14T00:35:41.669Z,13.18
2018-05-14T00:36:41.615Z,13.18
2018-05-14T00:37:41.555Z,13.17
2018-05-14T00:38:41.504Z,13.20
2018-05-14T00:39:41.444Z,13.21
2018-05-14T00:40:41.387Z,13.30
2018-05-14T00:41:41.332Z,13.32
2018-05-14T00:42:41.277Z,13.33
2018-05-14T00:43:41.219Z,13.37
2018-05-14T00:44:41.164Z,13.36
2018-05-14T00:45:41.106Z,13.29
2018-05-14T00:46:41.051Z,13.37
2018-05-14T00:47:40.994Z,13.27
2018-05-14T00:48:40.940Z,13.29
2018-05-14T00:49:40.883Z,13.30
2018-05-14T00:50:40.825Z,13.37
2018-05-14T00:51:40.772Z,13.27
2018-05-14T00:52:40.714Z,13.36
2018-05-14T00:53:40.658Z,13.33
2018-05-14T00:54:40.603Z,13.36
2018-05-14T00:55:40.547Z,13.33
2018-05-14T00:56:40.493Z,13.36
2018-05-14T00:57:40.434Z,13.41
2018-05-14T00:58:40.380Z,13.36
2018-05-14T00:59:40.322Z,13.33
2018-05-14T01:00:40.266Z,13.40
2018-05-14T01:01:40.210Z,13.36
2018-05-14T01:02:40.154Z,13.36
2018-05-14T01:03:40.105Z,13.33
2018-05-14T01:04:40.043Z,13.36
2018-05-14T01:05:39.988Z,13.33
2018-05-14T01:06:39.955Z,13.37
2018-05-14T01:07:39.878Z,13.38
2018-05-14T01:08:39.820Z,13.38
2018-05-14T01:09:39.766Z,13.33
2018-05-14T01:10:39.707Z,13.27
2018-05-14T01:11:39.651Z,13.38
2018-05-14T01:12:39.597Z,13.38
2018-05-14T01:13:39.544Z,13.29
2018-05-14T01:14:39.490Z,13.38
2018-05-14T01:15:39.428Z,13.37
2018-05-14T01:16:39.376Z,13.38
2018-05-14T01:17:39.316Z,13.38
2018-05-14T01:18:39.261Z,13.30
2018-05-14T01:19:39.204Z,13.30
2018-05-14T01:20:39.151Z,13.40
2018-05-14T01:21:39.093Z,13.25
2018-05-14T01:22:39.037Z,13.32
2018-05-14T01:23:38.981Z,13.30
2018-05-14T01:24:38.928Z,13.32
2018-05-14T01:25:38.873Z,13.33
2018-05-14T01:26:38.814Z,13.36
2018-05-14T01:27:38.758Z,13.33
2018-05-14T01:28:38.703Z,13.33
2018-05-14T01:29:38.647Z,13.30
2018-05-14T01:30:38.591Z,13.38
2018-05-14T01:31:38.537Z,13.36
2018-05-14T01:32:38.481Z,13.37
2018-05-14T01:33:38.423Z,13.30
2018-05-14T01:34:38.369Z,13.37
2018-05-14T01:35:38.312Z,13.33
2018-05-14T01:36:38.257Z,13.27
2018-05-14T01:37:38.199Z,13.37
2018-05-14T01:38:38.144Z,13.32
2018-05-14T01:39:38.090Z,13.27
2018-05-14T01:40:38.035Z,13.25
2018-05-14T01:41:37.977Z,13.33
2018-05-14T01:42:37.921Z,13.27
2018-05-14T01:43:37.867Z,13.37
2018-05-14T01:44:37.813Z,13.40
2018-05-14T01:45:37.758Z,13.30
2018-05-14T01:46:37.701Z,13.37
2018-05-14T01:47:37.644Z,13.43
2018-05-14T01:48:37.588Z,13.36
2018-05-14T01:49:37.532Z,13.43
2018-05-14T01:50:37.479Z,13.43
2018-05-14T01:51:37.421Z,13.30
2018-05-14T01:52:37.367Z,13.36
2018-05-14T01:53:37.308Z,13.29
2018-05-14T01:54:37.253Z,13.33
2018-05-14T01:55:37.196Z,13.25
2018-05-14T01:56:37.145Z,13.30
2018-05-14T01:57:37.093Z,13.24
2018-05-14T01:58:37.029Z,13.37
2018-05-14T01:59:36.973Z,13.40
2018-05-14T02:00:36.919Z,13.37
2018-05-14T02:01:36.861Z,13.37
2018-05-14T02:02:36.805Z,13.38
2018-05-14T02:03:36.751Z,13.33
2018-05-14T02:04:36.696Z,13.27
2018-05-14T02:05:36.638Z,13.37
2018-05-14T02:06:36.584Z,13.29
2018-05-14T02:07:36.527Z,13.32
2018-05-14T02:08:36.470Z,13.38
2018-05-14T02:09:36.414Z,13.36
2018-05-14T02:10:36.358Z,13.32
2018-05-14T02:11:36.304Z,13.30
2018-05-14T02:12:36.248Z,13.41
2018-05-14T02:13:36.191Z,13.33
2018-05-14T02:14:36.136Z,13.29
2018-05-14T02:15:36.081Z,13.29
2018-05-14T02:16:36.025Z,13.38
2018-05-14T02:17:35.967Z,13.37
2018-05-14T02:18:35.912Z,13.32
2018-05-14T02:19:35.854Z,13.32
2018-05-14T02:20:35.801Z,13.32
2018-05-14T02:21:35.817Z,13.32
2018-05-14T02:22:35.687Z,13.33
2018-05-14T02:23:35.632Z,13.36
2018-05-14T02:24:35.579Z,13.30
2018-05-14T02:25:35.518Z,13.27
2018-05-14T02:26:35.463Z,13.32
2018-05-14T02:27:35.408Z,13.38
2018-05-14T02:28:35.395Z,13.29
2018-05-14T02:29:35.299Z,13.30
2018-05-14T02:30:35.238Z,13.24
2018-05-14T02:31:35.183Z,13.37
2018-05-14T02:32:35.127Z,13.37
2018-05-14T02:33:35.072Z,13.32
2018-05-14T02:34:35.016Z,13.29
2018-05-14T02:35:34.960Z,13.36
2018-05-14T02:36:34.904Z,13.33
2018-05-14T02:37:34.848Z,13.33
2018-05-14T02:38:34.792Z,13.40
2018-05-14T02:39:34.735Z,13.32
2018-05-14T02:40:34.682Z,13.30
2018-05-14T02:41:34.629Z,13.36
2018-05-14T02:42:34.574Z,13.41
2018-05-14T02:43:34.513Z,13.38
2018-05-14T02:44:34.456Z,13.33
2018-05-14T02:45:34.401Z,13.32
2018-05-14T02:46:34.345Z,13.32
2018-05-14T02:47:34.292Z,13.30
2018-05-14T02:48:34.232Z,13.38
2018-05-14T02:49:34.180Z,13.40
2018-05-14T02:50:34.124Z,13.38
2018-05-14T02:51:34.066Z,13.41
2018-05-14T02:52:34.015Z,13.46
2018-05-14T02:53:33.954Z,13.41
2018-05-14T02:54:33.897Z,13.36
2018-05-14T02:55:33.841Z,13.44
2018-05-14T02:56:33.787Z,13.41
2018-05-14T02:57:33.731Z,13.30
2018-05-14T02:58:33.672Z,13.43
2018-05-14T02:59:33.618Z,13.33
2018-05-14T03:00:33.562Z,13.43
2018-05-14T03:01:33.505Z,13.32
2018-05-14T03:02:33.451Z,13.41
2018-05-14T03:03:33.394Z,13.38
2018-05-14T03:04:33.338Z,13.36
2018-05-14T03:05:33.280Z,13.43
2018-05-14T03:06:33.225Z,13.38
2018-05-14T03:07:33.169Z,13.40
2018-05-14T03:08:33.115Z,13.30
2018-05-14T03:09:33.063Z,13.36
2018-05-14T03:10:33.087Z,13.25
2018-05-14T03:11:32.946Z,13.36
2018-05-14T03:12:32.895Z,13.32
2018-05-14T03:13:32.833Z,13.38
2018-05-14T03:14:32.777Z,13.38
2018-05-14T03:15:32.721Z,13.46
2018-05-14T03:16:32.667Z,13.37
2018-05-14T03:17:32.610Z,13.43
2018-05-14T03:18:32.555Z,13.38
2018-05-14T03:19:32.501Z,13.37
2018-05-14T03:20:32.443Z,13.37
2018-05-14T03:21:32.387Z,13.36
2018-05-14T03:22:32.390Z,13.30
2018-05-14T03:23:32.276Z,13.36
2018-05-14T03:24:32.221Z,13.37
2018-05-14T03:25:32.161Z,13.40
2018-05-14T03:26:32.106Z,13.38
2018-05-14T03:27:32.050Z,13.41
2018-05-14T03:28:31.994Z,13.49
2018-05-14T03:29:31.936Z,13.43
2018-05-14T03:30:31.882Z,13.49
2018-05-14T03:31:31.829Z,13.38
2018-05-14T03:32:31.772Z,13.43
2018-05-14T03:33:31.716Z,13.44
2018-05-14T03:34:31.659Z,13.40
2018-05-14T03:35:31.602Z,13.44
2018-05-14T03:36:31.548Z,13.33
2018-05-14T03:37:31.494Z,13.41
2018-05-14T03:38:31.438Z,13.36
2018-05-14T03:39:31.378Z,13.36
2018-05-14T03:40:31.332Z,13.25
2018-05-14T03:41:31.267Z,13.30
2018-05-14T03:42:31.211Z,13.36
2018-05-14T03:43:31.156Z,13.37
2018-05-14T03:44:31.104Z,13.36
2018-05-14T03:45:31.044Z,13.27
2018-05-14T03:46:30.986Z,13.38
2018-05-14T03:47:30.931Z,13.40
2018-05-14T03:48:30.879Z,13.38
2018-05-14T03:49:30.832Z,13.40
2018-05-14T03:50:30.765Z,13.43
2018-05-14T03:51:30.708Z,13.38
2018-05-14T03:52:30.653Z,13.43
2018-05-14T03:53:30.597Z,13.41
2018-05-14T03:54:30.539Z,13.41
2018-05-14T03:55:30.483Z,13.54
2018-05-14T03:56:30.429Z,13.33
2018-05-14T03:57:30.376Z,13.44
2018-05-14T03:58:30.318Z,13.40
2018-05-14T03:59:30.260Z,13.47
2018-05-14T04:00:30.204Z,13.41
2018-05-14T04:01:30.158Z,13.30
2018-05-14T04:02:30.138Z,13.32
2018-05-14T04:03:30.044Z,13.36
2018-05-14T04:04:29.982Z,13.43
2018-05-14T04:05:29.928Z,13.46
2018-05-14T04:06:29.867Z,13.47
2018-05-14T04:07:29.812Z,13.47
2018-05-14T04:08:29.771Z,13.46
2018-05-14T04:09:29.702Z,13.54
2018-05-14T04:10:29.645Z,13.52
2018-05-14T04:11:29.591Z,13.55
2018-05-14T04:12:29.535Z,13.52
2018-05-14T04:13:29.475Z,13.47
2018-05-14T04:14:29.423Z,13.59
2018-05-14T04:15:29.365Z,13.63
2018-05-14T04:16:29.323Z,13.62
2018-05-14T04:17:29.257Z,13.58
2018-05-14T04:18:29.197Z,13.58
2018-05-14T04:19:29.141Z,13.55
2018-05-14T04:20:29.085Z,13.58
2018-05-14T04:21:29.030Z,13.52
2018-05-14T04:22:28.974Z,13.51
2018-05-14T04:23:28.918Z,13.49
2018-05-14T04:24:28.943Z,13.47
2018-05-14T04:25:28.805Z,13.47
2018-05-14T04:26:28.749Z,13.46
2018-05-14T04:27:28.698Z,13.41
2018-05-14T04:28:28.637Z,13.38
2018-05-14T04:29:28.582Z,13.52
2018-05-14T04:30:28.527Z,13.47
2018-05-14T04:31:28.473Z,13.54
2018-05-14T04:32:28.416Z,13.47
2018-05-14T04:33:28.358Z,13.51
2018-05-14T04:34:28.303Z,13.52
2018-05-14T04:35:28.248Z,13.47
2018-05-14T04:36:28.191Z,13.49
2018-05-14T04:37:28.137Z,13.47
2018-05-14T04:38:28.081Z,13.44
2018-05-14T04:39:28.025Z,13.49
2018-05-14T04:40:27.970Z,13.46
2018-05-14T04:41:27.912Z,13.59
2018-05-14T04:42:27.862Z,13.46
2018-05-14T04:43:27.801Z,13.46
2018-05-14T04:44:27.747Z,13.47
2018-05-14T04:45:27.687Z,13.47
2018-05-14T04:46:27.632Z,13.51
2018-05-14T04:47:27.579Z,13.51
2018-05-14T04:48:27.525Z,13.52
2018-05-14T04:49:27.465Z,13.55
2018-05-14T04:50:27.408Z,13.46
2018-05-14T04:51:27.353Z,13.51
2018-05-14T04:52:27.297Z,13.47
2018-05-14T04:53:27.242Z,13.52
2018-05-14T04:54:27.185Z,13.56
2018-05-14T04:55:27.129Z,13.52
2018-05-14T04:56:27.075Z,13.56
2018-05-14T04:57:27.017Z,13.58
2018-05-14T04:58:26.965Z,13.54
2018-05-14T04:59:26.906Z,13.49
2018-05-14T05:00:26.850Z,13.55
2018-05-14T05:01:26.794Z,13.55
2018-05-14T05:02:26.741Z,13.52
2018-05-14T05:03:26.682Z,13.55
2018-05-14T05:04:26.626Z,13.52
2018-05-14T05:05:26.569Z,13.51
2018-05-14T05:06:26.515Z,13.59
2018-05-14T05:07:26.458Z,13.61
2018-05-14T05:08:26.402Z,13.62
2018-05-14T05:09:26.346Z,13.58
2018-05-14T05:10:26.402Z,13.67
2018-05-14T05:11:26.312Z,13.63
2018-05-14T05:12:26.178Z,13.56
2018-05-14T05:13:26.122Z,13.51
2018-05-14T05:14:26.070Z,13.54
2018-05-14T05:15:26.010Z,13.54
2018-05-14T05:16:25.958Z,13.49
2018-05-14T05:17:25.904Z,13.46
2018-05-14T05:18:25.842Z,13.46
2018-05-14T05:19:25.795Z,13.46
2018-05-14T05:20:25.733Z,13.41
2018-05-14T05:21:25.680Z,13.43
2018-05-14T05:22:25.617Z,13.44
2018-05-14T05:23:25.561Z,13.41
2018-05-14T05:24:25.594Z,13.44
2018-05-14T05:25:25.450Z,13.44
2018-05-14T05:26:25.394Z,13.47
2018-05-14T05:27:25.340Z,13.51
2018-05-14T05:28:25.354Z,13.52
2018-05-14T05:29:25.225Z,13.47
2018-05-14T05:30:25.169Z,13.54
2018-05-14T05:31:25.113Z,13.52
2018-05-14T05:32:25.065Z,13.47
2018-05-14T05:33:25.001Z,13.47
2018-05-14T05:34:25.036Z,13.46
2018-05-14T05:35:24.892Z,13.51
2018-05-14T05:36:24.835Z,13.46
2018-05-14T05:37:24.776Z,13.33
2018-05-14T05:38:24.721Z,13.37
2018-05-14T05:39:24.671Z,13.41
2018-05-14T05:40:24.608Z,13.36
2018-05-14T05:41:24.552Z,13.33
2018-05-14T05:42:24.496Z,13.36
2018-05-14T05:43:24.441Z,13.27
2018-05-14T05:44:24.387Z,13.43
2018-05-14T05:45:24.424Z,13.33
2018-05-14T05:46:24.271Z,13.44
2018-05-14T05:47:24.221Z,13.33
2018-05-14T05:48:24.160Z,13.36
2018-05-14T05:49:24.103Z,13.40
2018-05-14T05:50:24.049Z,13.37
2018-05-14T05:51:23.990Z,13.33
2018-05-14T05:52:23.953Z,13.38
2018-05-14T05:53:23.879Z,13.49
2018-05-14T05:54:23.822Z,13.38
2018-05-14T05:55:23.766Z,13.44
2018-05-14T05:56:23.712Z,13.46
2018-05-14T05:57:23.654Z,13.41
2018-05-14T05:58:23.598Z,13.49
2018-05-14T05:59:23.543Z,13.41
2018-05-14T06:00:23.486Z,13.32
2018-05-14T06:01:23.480Z,13.30
2018-05-14T06:02:23.375Z,13.40
2018-05-14T06:03:23.318Z,13.41
2018-05-14T06:04:23.262Z,13.33
2018-05-14T06:05:23.210Z,13.38
2018-05-14T06:06:23.149Z,13.29
2018-05-14T06:07:23.093Z,13.43
2018-05-14T06:08:23.036Z,13.33
2018-05-14T06:09:23.055Z,13.33
2018-05-14T06:10:22.925Z,13.43
2018-05-14T06:11:22.867Z,13.51
2018-05-14T06:12:22.812Z,13.44
2018-05-14T06:13:22.755Z,13.47
2018-05-14T06:14:22.700Z,13.36
2018-05-14T06:15:22.647Z,13.43
2018-05-14T06:16:22.587Z,13.33
2018-05-14T06:17:22.530Z,13.30
2018-05-14T06:18:22.479Z,13.32
2018-05-14T06:19:22.418Z,13.41
2018-05-14T06:20:22.362Z,13.40
2018-05-14T06:21:22.305Z,13.37
2018-05-14T06:22:22.255Z,13.38
2018-05-14T06:23:22.193Z,13.43
2018-05-14T06:24:22.139Z,13.41
2018-05-14T06:25:22.084Z,13.41
2018-05-14T06:26:22.027Z,13.36
2018-05-14T06:27:21.972Z,13.32
2018-05-14T06:28:21.916Z,13.38
2018-05-14T06:29:21.858Z,13.37
2018-05-14T06:30:21.801Z,13.43
2018-05-14T06:31:21.750Z,13.46
2018-05-14T06:32:21.690Z,13.49
2018-05-14T06:33:21.632Z,13.51
2018-05-14T06:34:21.575Z,13.51
2018-05-14T06:35:21.521Z,13.46
2018-05-14T06:36:21.464Z,13.47
2018-05-14T06:37:21.407Z,13.52
2018-05-14T06:38:21.354Z,13.47
2018-05-14T06:39:21.297Z,13.40
2018-05-14T06:40:21.239Z,13.41
2018-05-14T06:41:21.183Z,13.33
2018-05-14T06:42:21.128Z,13.36
2018-05-14T06:43:21.076Z,13.43
2018-05-14T06:44:21.044Z,13.44
2018-05-14T06:45:20.960Z,13.38
2018-05-14T06:46:20.903Z,13.52
2018-05-14T06:47:20.850Z,13.51
2018-05-14T06:48:20.791Z,13.46
2018-05-14T06:49:20.734Z,13.51
2018-05-14T06:50:20.683Z,13.52
2018-05-14T06:51:20.623Z,13.51
2018-05-14T06:52:20.567Z,13.49
2018-05-14T06:53:20.512Z,13.51
2018-05-14T06:54:20.455Z,13.54
2018-05-14T06:55:20.399Z,13.54
2018-05-14T06:56:20.346Z,13.59
2018-05-14T06:57:20.371Z,13.49
2018-05-14T06:58:20.232Z,13.49
2018-05-14T06:59:20.175Z,13.51
2018-05-14T07:00:20.131Z,13.44
2018-05-14T07:01:20.063Z,13.32
2018-05-14T07:02:20.011Z,13.37
2018-05-14T07:03:19.956Z,13.49
2018-05-14T07:04:19.927Z,13.49
2018-05-14T07:05:19.842Z,13.36
2018-05-14T07:06:19.782Z,13.43
2018-05-14T07:07:19.727Z,13.40
2018-05-14T07:08:19.669Z,13.37
2018-05-14T07:09:19.612Z,13.30
2018-05-14T07:10:19.559Z,13.27
2018-05-14T07:11:19.509Z,13.37
2018-05-14T07:12:19.445Z,13.38
2018-05-14T07:13:19.388Z,13.47
2018-05-14T07:14:19.331Z,13.51
2018-05-14T07:15:19.276Z,13.44
2018-05-14T07:16:19.227Z,13.55
2018-05-14T07:17:19.163Z,13.52
2018-05-14T07:18:19.107Z,13.52
2018-05-14T07:19:19.058Z,13.43
2018-05-14T07:20:18.995Z,13.47
2018-05-14T07:21:18.941Z,13.46
2018-05-14T07:22:18.883Z,13.51
2018-05-14T07:23:18.826Z,13.59
2018-05-14T07:24:18.773Z,13.58
2018-05-14T07:25:18.713Z,13.52
2018-05-14T07:26:18.657Z,13.59
2018-05-14T07:27:18.602Z,13.46
2018-05-14T07:28:18.545Z,13.55
2018-05-14T07:29:18.495Z,13.54
2018-05-14T07:30:18.433Z,13.47
2018-05-14T07:31:18.377Z,13.52
2018-05-14T07:32:18.320Z,13.52
2018-05-14T07:33:18.264Z,13.54
2018-05-14T07:34:18.208Z,13.61
2018-05-14T07:35:18.155Z,13.47
2018-05-14T07:36:18.100Z,13.56
2018-05-14T07:37:18.043Z,13.51
2018-05-14T07:38:17.983Z,13.55
2018-05-14T07:39:17.928Z,13.59
2018-05-14T07:40:17.871Z,13.70
2018-05-14T07:41:17.815Z,13.63
2018-05-14T07:42:17.764Z,13.67
2018-05-14T07:43:17.704Z,13.58
2018-05-14T07:44:17.646Z,13.65
2018-05-14T07:45:17.589Z,13.69
2018-05-14T07:46:17.535Z,13.65
2018-05-14T07:47:17.480Z,13.79
2018-05-14T07:48:17.423Z,13.77
2018-05-14T07:49:17.365Z,13.71
2018-05-14T07:50:17.310Z,13.81
2018-05-14T07:51:17.254Z,13.73
2018-05-14T07:52:17.202Z,13.61
2018-05-14T07:53:17.152Z,13.67
2018-05-14T07:54:17.089Z,13.65
2018-05-14T07:55:17.031Z,13.63
2018-05-14T07:56:16.978Z,13.67
2018-05-14T07:57:16.919Z,13.61
2018-05-14T07:58:16.864Z,13.73
2018-05-14T07:59:16.807Z,13.74
2018-05-14T08:00:16.772Z,13.70
2018-05-14T08:01:16.693Z,13.81
2018-05-14T08:02:16.640Z,13.83
2018-05-14T08:03:16.582Z,13.84
2018-05-14T08:04:16.527Z,13.84
2018-05-14T08:05:16.470Z,13.89
2018-05-14T08:06:16.414Z,13.81
2018-05-14T08:07:16.360Z,13.91
2018-05-14T08:08:16.304Z,13.84
2018-05-14T08:09:16.247Z,13.94
2018-05-14T08:10:16.193Z,13.91
2018-05-14T08:11:16.135Z,13.84
2018-05-14T08:12:16.082Z,13.96
2018-05-14T08:13:16.026Z,13.88
2018-05-14T08:14:15.969Z,13.89
2018-05-14T08:15:15.912Z,13.98
2018-05-14T08:16:15.858Z,13.91
2018-05-14T08:17:15.801Z,13.91
2018-05-14T08:18:15.747Z,13.89
2018-05-14T08:19:15.690Z,13.87
2018-05-14T08:20:15.634Z,13.94
2018-05-14T08:21:15.579Z,13.84
2018-05-14T08:22:15.527Z,13.84
2018-05-14T08:23:15.467Z,13.83
2018-05-14T08:24:15.416Z,13.92
2018-05-14T08:25:15.355Z,13.91
2018-05-14T08:26:15.300Z,13.94
2018-05-14T08:27:15.243Z,13.87
2018-05-14T08:28:15.189Z,13.87
2018-05-14T08:29:15.133Z,13.94
2018-05-14T08:30:15.077Z,13.92
2018-05-14T08:31:15.022Z,13.98
2018-05-14T08:32:14.967Z,13.94
2018-05-14T08:33:14.910Z,13.99
2018-05-14T08:34:14.857Z,14.06
2018-05-14T08:35:14.799Z,14.10
2018-05-14T08:36:14.744Z,14.10
2018-05-14T08:37:14.788Z,14.10
2018-05-14T08:38:14.632Z,14.10
2018-05-14T08:39:14.577Z,14.10
2018-05-14T08:40:14.523Z,14.10
2018-05-14T08:41:14.465Z,14.10
2018-05-14T08:42:14.408Z,14.12
2018-05-14T08:43:14.353Z,14.17
2018-05-14T08:44:14.301Z,14.25
2018-05-14T08:45:14.243Z,14.27
2018-05-14T08:46:14.187Z,14.13
2018-05-14T08:47:14.132Z,14.16
2018-05-14T08:48:14.080Z,14.10
2018-05-14T08:49:14.020Z,14.09
2018-05-14T08:50:13.964Z,14.07
2018-05-14T08:51:13.910Z,14.02
2018-05-14T08:52:13.855Z,14.09
2018-05-14T08:53:13.799Z,14.09
2018-05-14T08:54:13.755Z,14.02
2018-05-14T08:55:13.689Z,14.04
2018-05-14T08:56:13.632Z,13.98
2018-05-14T08:57:13.575Z,13.99
2018-05-14T08:58:13.521Z,14.04
2018-05-14T08:59:13.465Z,14.02
2018-05-14T09:00:13.409Z,14.10
2018-05-14T09:01:13.380Z,14.09
2018-05-14T09:02:13.296Z,14.01
2018-05-14T09:03:13.242Z,13.99
2018-05-14T09:04:13.188Z,14.10
2018-05-14T09:05:13.130Z,14.09
2018-05-14T09:06:13.075Z,14.10
2018-05-14T09:07:13.020Z,14.07
2018-05-14T09:08:12.964Z,14.16
2018-05-14T09:09:12.915Z,14.19
2018-05-14T09:10:12.853Z,14.16
2018-05-14T09:11:12.798Z,14.16
2018-05-14T09:12:12.742Z,14.16
2018-05-14T09:13:12.687Z,14.10
2018-05-14T09:14:12.630Z,14.16
2018-05-14T09:15:12.574Z,14.09
2018-05-14T09:16:12.521Z,14.09
2018-05-14T09:17:12.465Z,14.04
2018-05-14T09:18:12.408Z,14.10
2018-05-14T09:19:12.439Z,14.09
2018-05-14T09:20:12.297Z,14.06
2018-05-14T09:21:12.243Z,14.10
2018-05-14T09:22:12.185Z,14.13
2018-05-14T09:23:12.129Z,14.19
2018-05-14T09:24:12.076Z,14.14
2018-05-14T09:25:12.022Z,14.12
2018-05-14T09:26:11.965Z,14.20
2018-05-14T09:27:11.908Z,14.25
2018-05-14T09:28:11.852Z,14.17
2018-05-14T09:29:11.796Z,14.16
2018-05-14T09:30:11.740Z,14.20
2018-05-14T09:31:11.692Z,14.24
2018-05-14T09:32:11.629Z,14.29
2018-05-14T09:33:11.573Z,14.24
2018-05-14T09:34:11.518Z,14.21
2018-05-14T09:35:11.462Z,14.31
2018-05-14T09:36:11.434Z,14.31
2018-05-14T09:37:11.406Z,14.31
2018-05-14T09:38:11.294Z,14.38
2018-05-14T09:39:11.239Z,14.34
2018-05-14T09:40:11.184Z,14.34
2018-05-14T09:41:11.127Z,14.38
2018-05-14T09:42:11.076Z,14.46
2018-05-14T09:43:11.017Z,14.47
2018-05-14T09:44:10.962Z,14.62
2018-05-14T09:45:10.906Z,14.54
2018-05-14T09:46:10.860Z,14.57
2018-05-14T09:47:10.796Z,14.49
2018-05-14T09:48:10.740Z,14.56
2018-05-14T09:49:10.684Z,14.56
2018-05-14T09:50:10.628Z,14.53
2018-05-14T09:51:10.574Z,14.54
2018-05-14T09:52:10.518Z,14.54
2018-05-14T09:53:10.464Z,14.54
2018-05-14T09:54:10.407Z,14.52
2018-05-14T09:55:10.353Z,14.52
2018-05-14T09:56:10.297Z,14.60
2018-05-14T09:57:10.240Z,14.54
2018-05-14T09:58:10.184Z,14.54
2018-05-14T09:59:10.137Z,14.60
2018-05-14T10:00:10.075Z,14.54
2018-05-14T10:01:10.020Z,14.68
2018-05-14T10:02:09.964Z,14.67
2018-05-14T10:03:09.909Z,14.53
2018-05-14T10:04:09.855Z,14.67
2018-05-14T10:05:09.800Z,14.67
2018-05-14T10:06:09.744Z,14.64
2018-05-14T10:07:09.688Z,14.69
2018-05-14T10:08:09.636Z,14.84
2018-05-14T10:09:09.578Z,14.83
2018-05-14T10:10:09.521Z,14.83
2018-05-14T10:11:09.473Z,14.91
2018-05-14T10:12:09.415Z,14.88
2018-05-14T10:13:09.358Z,14.94
2018-05-14T10:14:09.302Z,14.88
2018-05-14T10:15:09.249Z,14.86
2018-05-14T10:16:09.192Z,14.84
2018-05-14T10:17:09.136Z,14.87
2018-05-14T10:18:09.082Z,14.83
2018-05-14T10:19:09.030Z,14.87
2018-05-14T10:20:08.973Z,14.75
2018-05-14T10:21:08.918Z,14.88
2018-05-14T10:22:08.878Z,14.88
2018-05-14T10:23:08.808Z,14.87
2018-05-14T10:24:08.755Z,14.86
2018-05-14T10:25:08.701Z,14.83
2018-05-14T10:26:08.640Z,14.87
2018-05-14T10:27:08.586Z,14.80
2018-05-14T10:28:08.539Z,14.72
2018-05-14T10:29:08.475Z,14.87
2018-05-14T10:30:08.421Z,14.91
2018-05-14T10:31:08.365Z,14.98
2018-05-14T10:32:08.395Z,15.03
2018-05-14T10:33:08.257Z,15.01
2018-05-14T10:34:08.200Z,14.93
2018-05-14T10:35:08.145Z,14.98
2018-05-14T10:36:08.113Z,14.98
2018-05-14T10:37:08.037Z,15.02
2018-05-14T10:38:07.982Z,14.95
2018-05-14T10:39:07.927Z,15.05
2018-05-14T10:40:07.873Z,15.03
2018-05-14T10:41:07.818Z,15.06
2018-05-14T10:42:07.766Z,15.06
2018-05-14T10:43:07.707Z,15.06
2018-05-14T10:44:07.653Z,15.03
2018-05-14T10:45:07.598Z,15.01
2018-05-14T10:46:07.543Z,15.01
2018-05-14T10:47:07.486Z,15.08
2018-05-14T10:48:07.436Z,15.21
2018-05-14T10:49:07.376Z,15.13
2018-05-14T10:50:07.324Z,15.19
2018-05-14T10:51:07.268Z,15.19
2018-05-14T10:52:07.216Z,15.24
2018-05-14T10:53:07.157Z,15.30
2018-05-14T10:54:07.103Z,15.27
2018-05-14T10:55:07.047Z,15.26
2018-05-14T10:56:07.000Z,15.31
2018-05-14T10:57:06.937Z,15.19
2018-05-14T10:58:06.884Z,15.26
2018-05-14T10:59:06.829Z,15.24
2018-05-14T11:00:06.774Z,15.27
2018-05-14T11:01:06.719Z,15.33
2018-05-14T11:02:06.669Z,15.26
2018-05-14T11:03:06.609Z,15.31
2018-05-14T11:04:06.661Z,15.27
2018-05-14T11:05:06.503Z,15.28
2018-05-14T11:06:06.531Z,15.19
2018-05-14T11:07:06.394Z,15.20
2018-05-14T11:08:06.341Z,15.24
2018-05-14T11:09:06.281Z,15.27
2018-05-14T11:10:06.228Z,15.23
2018-05-14T11:11:06.174Z,15.19
2018-05-14T11:12:06.119Z,15.21
2018-05-14T11:13:06.062Z,15.27
2018-05-14T11:14:06.010Z,15.31
2018-05-14T11:15:05.954Z,15.33
2018-05-14T11:16:05.900Z,15.26
2018-05-14T11:17:05.844Z,15.33
2018-05-14T11:18:05.792Z,15.36
2018-05-14T11:19:05.734Z,15.31
2018-05-14T11:20:05.699Z,15.33
2018-05-14T11:21:05.627Z,15.31
2018-05-14T11:22:05.571Z,15.27
2018-05-14T11:23:05.517Z,15.36
2018-05-14T11:24:05.462Z,15.35
2018-05-14T11:25:05.411Z,15.41
2018-05-14T11:26:05.361Z,15.31
2018-05-14T11:27:05.298Z,15.30
2018-05-14T11:28:05.245Z,15.35
2018-05-14T11:29:05.194Z,15.39
2018-05-14T11:30:05.134Z,15.35
2018-05-14T11:31:05.100Z,15.38
2018-05-14T11:32:05.027Z,15.38
2018-05-14T11:33:04.973Z,15.36
2018-05-14T11:34:04.917Z,15.45
2018-05-14T11:35:04.861Z,15.45
2018-05-14T11:36:04.807Z,15.48
2018-05-14T11:37:04.752Z,15.49
2018-05-14T11:38:04.700Z,15.51
2018-05-14T11:39:04.645Z,15.51
2018-05-14T11:40:04.590Z,15.56
2018-05-14T11:41:04.533Z,15.61
2018-05-14T11:42:04.478Z,15.61
2018-05-14T11:43:04.424Z,15.59
2018-05-14T11:44:04.370Z,15.60
2018-05-14T11:45:04.314Z,15.61
2018-05-14T11:46:04.261Z,15.60
2018-05-14T11:47:04.205Z,15.67
2018-05-14T11:48:04.152Z,15.61
2018-05-14T11:49:04.096Z,15.61
2018-05-14T11:50:04.041Z,15.66
2018-05-14T11:51:03.989Z,15.57
2018-05-14T11:52:03.935Z,15.64
2018-05-14T11:53:03.878Z,15.64
2018-05-14T11:54:03.825Z,15.63
2018-05-14T11:55:03.769Z,15.68
2018-05-14T11:56:03.716Z,15.67
2018-05-14T11:57:03.665Z,15.70
2018-05-14T11:58:03.606Z,15.75
2018-05-14T11:59:03.552Z,15.68
2018-05-14T12:00:03.499Z,15.75
2018-05-14T12:01:03.443Z,15.68
2018-05-14T12:02:03.391Z,15.86
2018-05-14T12:03:03.360Z,15.81
2018-05-14T12:04:03.280Z,15.82
2018-05-14T12:05:03.225Z,15.82
2018-05-14T12:06:03.171Z,15.85
2018-05-14T12:07:03.159Z,15.85
2018-05-14T12:08:03.062Z,15.85
2018-05-14T12:09:03.010Z,15.89
2018-05-14T12:10:02.955Z,15.96
2018-05-14T12:11:02.899Z,15.97
2018-05-14T12:12:02.846Z,15.94
2018-05-14T12:13:02.793Z,16.06
2018-05-14T12:14:02.736Z,16.07
2018-05-14T12:15:02.683Z,16.09
2018-05-14T12:16:02.649Z,16.07
2018-05-14T12:17:02.582Z,16.09
2018-05-14T12:18:02.618Z,16.09
2018-05-14T12:19:02.469Z,16.14
2018-05-14T12:20:02.411Z,16.15
2018-05-14T12:21:02.360Z,16.26
2018-05-14T12:22:02.307Z,16.20
2018-05-14T12:23:02.249Z,16.38
2018-05-14T12:24:02.202Z,16.34
2018-05-14T12:25:02.145Z,16.25
2018-05-14T12:26:02.090Z,16.23
2018-05-14T12:27:02.036Z,16.23
2018-05-14T12:28:01.980Z,16.22
2018-05-14T12:29:01.926Z,16.22
2018-05-14T12:30:01.872Z,16.15
2018-05-14T12:31:01.818Z,16.20
2018-05-14T12:32:01.809Z,16.20
2018-05-14T12:33:01.727Z,16.22
2018-05-14T12:34:01.653Z,16.25
2018-05-14T12:35:01.602Z,16.25
2018-05-14T12:36:01.547Z,16.18
2018-05-14T12:37:01.492Z,16.16
2018-05-14T12:38:01.440Z,16.27
2018-05-14T12:39:01.389Z,16.26
2018-05-14T12:40:01.331Z,16.31
2018-05-14T12:41:01.282Z,16.25
2018-05-14T12:42:01.225Z,16.16
2018-05-14T12:43:01.169Z,16.22
2018-05-14T12:44:01.115Z,16.16
2018-05-14T12:45:01.059Z,16.15
2018-05-14T12:46:01.092Z,16.25
2018-05-14T12:47:00.953Z,16.20
2018-05-14T12:48:00.899Z,16.26
2018-05-14T12:49:00.843Z,16.20
2018-05-14T12:50:00.791Z,16.20
2018-05-14T12:51:00.739Z,16.15
2018-05-14T12:52:00.757Z,16.14